Aeroporto :
LOGIN :

Iscrizione | Disclaimer

   EN    FR    IT 

 










Sommario :    VFR   VFR Marginale   IFR   IFR Intensivo   IFR Molto Intensivo
Visibilità : 
Base nubi : 
>= 8 km
>= 3000ft
5 / 8 km
1000 / 3000 ft
1500m / 5 km
500 / 1000 ft
800 / 1500m
200 / 500 ft
< 800m
< 200 ft
Simboli :   Temporali  Nebbia  Neve Forte  Precipitazioni Forti  Vento > 20 kt
SIGMETs :   Varie  Temporali  Ghiacco  Turbolenza  Onda orograficha  Ceneri Vulcaniche







- Altitudine del aeroporto : 219 ft
- Codice IATA : DNR
- Carte del aeroporto


LFRD - Dinard

ULTIMO METAR :
  • 191430Z AUTO 35004KT 300V020 9999 BKN023 BKN034 OVC041 12/07 Q1030 TEMPO 4000 SHRA BKN014

METARs OBSOLETI :
  • 191400Z AUTO 35005KT 320V020 9999 BKN026 OVC037 12/07 Q1030 TEMPO 4000 SHRA BKN014
  • 191330Z AUTO VRB02KT 9999 FEW025 OVC040 13/06 Q1030 TEMPO 4000 SHRA BKN014
  • 191300Z AUTO VRB03KT 9999 BKN023 OVC040 12/06 Q1030 TEMPO 4000 SHRA BKN014
  • 191230Z AUTO 31004KT 250V030 9999 OVC039 11/06 Q1030 TEMPO 4000 SHRA BKN014
  • 191200Z AUTO 28004KT 220V320 9999 SCT024 OVC037 11/06 Q1030 TEMPO 4000 SHRA BKN014

TAF TAF LFRD
Valido dal 19 a 12 ore il 20 a 12 ore UTC


191100Z 1912/2012 VRB03KT 9999 BKN025
PROB30
TEMPO 1912/1916 4000 SHRA BKN014
TEMPO 1922/2008 3000 BR
PROB30
TEMPO 2002/2006 0400 FG VV///
ATIS : +33 2 99 16 81 50
Nessun NOTAM noto per questo aeroporto.



MetMap, La meteo Aeronautica in un colpo d'occhio ! - Copyright ORBIFLY Dicembre 2007 - Disclaimer

ORBIFLY MET'MAP TEAM :

Programmazione e sviluppo : Alexandra Zaïnal
Concezione e sviluppo : Baudouin d'Aumeries
Co-Programmazione e sviluppo : Marc-Olivier Méhu
Supporto tecnico e logistico : Manuel Goepfert
Aiuto per la traduzione : Arnaldo La Scala

Contatto : metmap@orbifly.com




FONTI E CREDITI :

   NOAA